createdAt,value
2019-02-20T00:03:57.527Z,2.01
2019-02-20T00:07:59.921Z,2.02
2019-02-20T00:12:02.689Z,2.01
2019-02-20T00:16:08.079Z,2.06
2019-02-20T00:20:11.817Z,2.05
2019-02-20T00:24:14.572Z,2.05
2019-02-20T00:28:16.953Z,2.05
2019-02-20T00:32:19.447Z,2.10
2019-02-20T00:36:21.770Z,2.06
2019-02-20T00:40:24.195Z,2.06
2019-02-20T00:45:03.716Z,2.03
2019-02-20T00:49:27.673Z,2.06
2019-02-20T00:53:34.339Z,2.05
2019-02-20T00:57:37.102Z,2.00
2019-02-20T01:01:39.513Z,2.02
2019-02-20T01:05:41.953Z,2.01
2019-02-20T01:09:44.330Z,2.02
2019-02-20T01:13:46.878Z,2.08
2019-02-20T01:17:49.202Z,2.05
2019-02-20T01:21:51.674Z,2.05
2019-02-20T01:25:54.062Z,2.03
2019-02-20T01:29:58.018Z,2.05
2019-02-20T01:34:00.430Z,2.01
2019-02-20T01:38:02.851Z,2.03
2019-02-20T01:42:05.272Z,2.02
2019-02-20T01:46:07.684Z,2.08
2019-02-20T01:50:10.206Z,2.07
2019-02-20T01:54:12.689Z,2.05
2019-02-20T01:58:16.871Z,2.00
2019-02-20T02:02:19.287Z,1.96
2019-02-20T02:06:21.907Z,1.97
2019-02-20T02:10:24.313Z,1.95
2019-02-20T02:14:26.631Z,1.99
2019-02-20T02:18:29.004Z,2.05
2019-02-20T02:22:31.324Z,2.03
2019-02-20T02:26:33.715Z,2.03
2019-02-20T02:30:36.141Z,2.03
2019-02-20T02:34:38.547Z,2.01
2019-02-20T02:38:40.907Z,2.01
2019-02-20T02:42:43.290Z,1.94
2019-02-20T02:46:45.611Z,1.97
2019-02-20T02:50:47.993Z,1.98
2019-02-20T02:54:50.353Z,1.95
2019-02-20T02:58:53.638Z,1.99
2019-02-20T03:02:55.951Z,2.00
2019-02-20T03:06:58.343Z,1.94
2019-02-20T03:11:00.686Z,1.89
2019-02-20T03:15:03.088Z,1.87
2019-02-20T03:19:05.849Z,1.82
2019-02-20T03:23:09.395Z,1.81
2019-02-20T03:27:11.750Z,1.82
2019-02-20T03:31:14.792Z,1.83
2019-02-20T03:35:17.129Z,1.83
2019-02-20T03:39:19.956Z,1.83
2019-02-20T03:43:22.430Z,1.76
2019-02-20T03:47:24.816Z,1.79
2019-02-20T03:51:27.160Z,1.77
2019-02-20T03:55:29.643Z,1.75
2019-02-20T03:59:35.154Z,1.71
2019-02-20T04:03:37.552Z,1.70
2019-02-20T04:07:39.895Z,1.70
2019-02-20T04:11:43.267Z,1.71
2019-02-20T04:15:45.636Z,1.70
2019-02-20T04:19:48.119Z,1.66
2019-02-20T04:23:50.483Z,1.64
2019-02-20T04:27:52.883Z,1.60
2019-02-20T04:31:55.344Z,1.59
2019-02-20T04:35:57.936Z,1.58
2019-02-20T04:40:00.712Z,1.55
2019-02-20T04:44:03.219Z,1.54
2019-02-20T04:48:05.695Z,1.50
2019-02-20T04:52:08.069Z,1.49
2019-02-20T04:56:10.523Z,1.46
2019-02-20T05:00:15.517Z,1.43
2019-02-20T05:04:18.034Z,1.43
2019-02-20T05:08:20.730Z,1.41
2019-02-20T05:12:23.216Z,1.37
2019-02-20T05:16:26.613Z,1.38
2019-02-20T05:20:29.089Z,1.37
2019-02-20T05:24:31.771Z,1.32
2019-02-20T05:28:34.297Z,1.30
2019-02-20T05:32:36.689Z,1.30
2019-02-20T05:36:39.028Z,1.27
2019-02-20T05:40:41.793Z,1.24
2019-02-20T05:44:44.212Z,1.26
2019-02-20T05:48:46.671Z,1.25
2019-02-20T05:52:49.174Z,1.27
2019-02-20T05:56:51.729Z,1.24
2019-02-20T06:00:54.326Z,1.23
2019-02-20T06:04:56.746Z,1.27
2019-02-20T06:08:59.102Z,1.26
2019-02-20T06:13:02.709Z,1.28
2019-02-20T06:17:05.142Z,1.28
2019-02-20T06:21:07.723Z,1.25
2019-02-20T06:25:10.283Z,1.26
2019-02-20T06:29:14.415Z,1.24
2019-02-20T06:33:16.758Z,1.23
2019-02-20T06:37:19.631Z,1.19
2019-02-20T06:41:21.953Z,1.21
2019-02-20T06:45:24.434Z,1.22
2019-02-20T06:49:26.745Z,1.23
2019-02-20T06:53:29.422Z,1.26
2019-02-20T06:57:31.882Z,1.25
2019-02-20T07:01:34.321Z,1.25
2019-02-20T07:05:43.297Z,1.24
2019-02-20T07:10:41.451Z,1.18
2019-02-20T07:15:19.123Z,1.15
2019-02-20T07:19:49.469Z,1.13
2019-02-20T07:24:31.852Z,0.94
2019-02-20T07:29:16.889Z,0.79
2019-02-20T07:33:19.143Z,0.75
2019-02-20T07:37:21.517Z,0.67
2019-02-20T07:41:23.866Z,0.65
2019-02-20T07:45:26.355Z,0.64
2019-02-20T07:49:28.651Z,0.58
2019-02-20T07:53:31.030Z,0.54
2019-02-20T07:57:33.395Z,0.53
2019-02-20T08:01:35.877Z,0.50
2019-02-20T08:05:38.463Z,0.45
2019-02-20T08:09:41.464Z,0.32
2019-02-20T08:13:43.878Z,0.34
2019-02-20T08:17:46.447Z,0.20
2019-02-20T08:21:48.784Z,0.16
2019-02-20T08:25:51.495Z,0.18
2019-02-20T08:29:53.818Z,0.10
2019-02-20T08:33:56.310Z,-0.22
2019-02-20T08:37:58.662Z,-0.42
2019-02-20T08:42:01.372Z,-0.57
2019-02-20T08:46:04.144Z,-0.61
2019-02-20T08:50:08.282Z,-0.65
2019-02-20T08:54:11.005Z,-0.81
2019-02-20T08:58:13.661Z,-0.77
2019-02-20T09:02:16.468Z,-0.77
2019-02-20T09:06:19.307Z,-0.82
2019-02-20T09:10:22.021Z,-0.82
2019-02-20T09:14:26.666Z,-0.79
2019-02-20T09:18:29.189Z,-1.08
2019-02-20T09:22:31.942Z,-1.25
2019-02-20T09:26:34.491Z,-1.23
2019-02-20T09:30:37.557Z,-1.52
2019-02-20T09:34:40.072Z,-1.62
2019-02-20T09:38:42.937Z,-2.03
2019-02-20T09:42:47.238Z,-1.96
2019-02-20T09:46:50.062Z,-2.18
2019-02-20T09:50:52.696Z,-2.20
2019-02-20T09:54:55.411Z,-2.09
2019-02-20T09:58:58.023Z,-2.08
2019-02-20T10:03:00.688Z,-2.27
2019-02-20T10:07:03.294Z,-2.27
2019-02-20T10:11:06.158Z,-2.03
2019-02-20T10:15:09.603Z,-2.21
2019-02-20T10:19:12.199Z,-2.24
2019-02-20T10:23:15.744Z,-2.12
2019-02-20T10:27:18.498Z,-2.21
2019-02-20T10:31:21.111Z,-2.40
2019-02-20T10:35:23.564Z,-2.46
2019-02-20T10:39:25.908Z,-2.29
2019-02-20T10:43:28.703Z,-2.24
2019-02-20T10:47:31.450Z,-2.51
2019-02-20T10:51:34.395Z,-2.46
2019-02-20T10:55:37.109Z,-2.37
2019-02-20T10:59:39.795Z,-2.51
2019-02-20T11:03:42.338Z,-2.52
2019-02-20T11:07:45.054Z,-2.48
2019-02-20T11:11:47.531Z,-3.00
2019-02-20T11:15:50.010Z,-2.95
2019-02-20T11:19:54.255Z,-2.90
2019-02-20T11:23:56.684Z,-3.05
2019-02-20T11:27:59.018Z,-2.97
2019-02-20T11:32:02.067Z,-2.88
2019-02-20T11:36:04.390Z,-2.69
2019-02-20T11:40:07.959Z,-2.69
2019-02-20T11:44:10.467Z,-2.71
2019-02-20T11:48:13.041Z,-2.84
2019-02-20T11:52:15.361Z,-2.72
2019-02-20T11:56:26.220Z,-2.77
2019-02-20T12:00:21.985Z,-2.81
2019-02-20T12:04:26.786Z,-2.59
2019-02-20T12:08:29.211Z,-2.58
2019-02-20T12:12:31.616Z,-2.75
2019-02-20T12:16:33.946Z,-2.93
2019-02-20T12:20:36.866Z,-2.97
2019-02-20T12:24:39.201Z,-3.06
2019-02-20T12:28:41.648Z,-3.08
2019-02-20T12:32:44.061Z,-2.90
2019-02-20T12:36:46.487Z,-2.84
2019-02-20T12:40:48.832Z,-2.92
2019-02-20T12:44:51.860Z,-2.93
2019-02-20T12:48:54.188Z,-2.96
2019-02-20T12:52:56.813Z,-3.11
2019-02-20T12:56:59.320Z,-3.30
2019-02-20T13:01:01.779Z,-3.29
2019-02-20T13:05:05.547Z,-3.33
2019-02-20T13:09:10.970Z,-3.45
2019-02-20T13:13:16.676Z,-3.55
2019-02-20T13:17:19.477Z,-3.45
2019-02-20T13:21:23.959Z,-3.37
2019-02-20T13:25:26.723Z,-3.37
2019-02-20T13:29:29.368Z,-3.28
2019-02-20T13:33:32.198Z,-3.27
2019-02-20T13:37:34.716Z,-3.21
2019-02-20T13:41:37.513Z,-3.26
2019-02-20T13:45:40.117Z,-3.21
2019-02-20T13:49:42.855Z,-3.39
2019-02-20T13:53:46.597Z,-3.36
2019-02-20T13:57:50.074Z,-3.45
2019-02-20T14:01:52.793Z,-3.59
2019-02-20T14:05:55.644Z,-3.60
2019-02-20T14:09:58.494Z,-3.68
2019-02-20T14:14:01.174Z,-3.71
2019-02-20T14:18:03.849Z,-3.75
2019-02-20T14:22:07.868Z,-3.72
2019-02-20T14:26:10.551Z,-3.75
2019-02-20T14:30:13.462Z,-3.73
2019-02-20T14:34:17.002Z,-3.78
2019-02-20T14:42:21.543Z,-3.87
2019-02-20T14:46:24.311Z,-3.93
2019-02-20T14:50:26.956Z,-3.94
2019-02-20T14:54:29.610Z,-3.98
2019-02-20T14:58:32.420Z,-3.96
2019-02-20T15:02:35.206Z,-4.02
2019-02-20T15:06:37.944Z,-4.02
2019-02-20T15:10:40.707Z,-4.04
2019-02-20T15:14:44.333Z,-4.06
2019-02-20T15:18:47.240Z,-4.06
2019-02-20T15:22:49.904Z,-4.07
2019-02-20T15:26:52.573Z,-4.11
2019-02-20T15:30:55.606Z,-4.13
2019-02-20T15:34:59.538Z,-4.16
2019-02-20T15:39:02.409Z,-4.17
2019-02-20T15:43:06.658Z,-4.19
2019-02-20T15:47:09.976Z,-4.18
2019-02-20T15:51:13.130Z,-4.18
2019-02-20T15:55:17.096Z,-4.19
2019-02-20T15:59:19.865Z,-4.18
2019-02-20T16:03:23.296Z,-4.18
2019-02-20T16:07:27.790Z,-4.22
2019-02-20T16:11:30.990Z,-4.24
2019-02-20T16:15:34.537Z,-4.30
2019-02-20T16:19:38.122Z,-4.32
2019-02-20T16:23:44.499Z,-4.36
2019-02-20T16:27:47.877Z,-4.36
2019-02-20T16:31:51.423Z,-4.42
2019-02-20T16:35:54.036Z,-4.42
2019-02-20T16:39:59.461Z,-4.36
2019-02-20T16:44:02.158Z,-4.31
2019-02-20T16:48:05.106Z,-4.28
2019-02-20T16:52:07.857Z,-4.32
2019-02-20T16:56:10.806Z,-4.32
2019-02-20T17:00:13.930Z,-4.34
2019-02-20T17:04:18.163Z,-4.30
2019-02-20T17:08:20.756Z,-4.26
2019-02-20T17:12:23.474Z,-4.28
2019-02-20T17:16:26.232Z,-4.32
2019-02-20T17:20:28.854Z,-4.23
2019-02-20T17:24:33.352Z,-4.23
2019-02-20T17:28:37.177Z,-4.21
2019-02-20T17:32:40.079Z,-4.16
2019-02-20T17:36:43.173Z,-4.13
2019-02-20T17:40:45.962Z,-4.14
2019-02-20T17:44:48.647Z,-4.15
2019-02-20T17:48:51.252Z,-4.21
2019-02-20T17:52:53.916Z,-4.21
2019-02-20T17:56:57.744Z,-4.17
2019-02-20T18:01:01.644Z,-4.16
2019-02-20T18:05:04.442Z,-4.18
2019-02-20T18:09:10.844Z,-4.18
2019-02-20T18:13:13.367Z,-4.17
2019-02-20T18:17:16.253Z,-4.20
2019-02-20T18:21:18.731Z,-4.20
2019-02-20T18:25:21.401Z,-4.20
2019-02-20T18:29:23.919Z,-4.19
2019-02-20T18:33:26.694Z,-4.27
2019-02-20T18:37:29.556Z,-4.31
2019-02-20T18:41:32.257Z,-4.41
2019-02-20T18:45:34.936Z,-4.59
2019-02-20T18:49:39.066Z,-4.78
2019-02-20T18:53:41.808Z,-4.91
2019-02-20T18:57:44.694Z,-5.06
2019-02-20T19:01:47.428Z,-5.08
2019-02-20T19:05:50.180Z,-5.14
2019-02-20T19:09:52.982Z,-5.11
2019-02-20T19:14:18.459Z,-5.09
2019-02-20T19:19:07.447Z,-5.08
2019-02-20T19:23:45.793Z,-5.10
2019-02-20T19:28:10.273Z,-5.13
2019-02-20T19:32:51.212Z,-5.17
2019-02-20T19:37:17.830Z,-5.20
2019-02-20T19:42:09.950Z,-5.22
2019-02-20T19:46:44.980Z,-5.23
2019-02-20T19:51:15.953Z,-5.37
2019-02-20T19:55:43.455Z,-5.44
2019-02-20T20:00:25.292Z,-5.36
2019-02-20T20:05:09.814Z,-5.51
2019-02-20T20:09:54.499Z,-5.50
2019-02-20T20:14:18.597Z,-5.54
2019-02-20T20:19:00.307Z,-5.62
2019-02-20T20:23:45.199Z,-5.68
2019-02-20T20:28:16.064Z,-5.71
2019-02-20T20:32:56.678Z,-5.62
2019-02-20T20:37:14.795Z,-5.58
2019-02-20T20:42:10.709Z,-5.60
2019-02-20T20:47:06.859Z,-5.58
2019-02-20T20:51:51.329Z,-5.61
2019-02-20T20:56:56.943Z,-5.64
2019-02-20T21:01:31.330Z,-5.75
2019-02-20T21:06:01.135Z,-5.67
2019-02-20T21:10:44.552Z,-5.76
2019-02-20T21:14:55.914Z,-5.91
2019-02-20T21:19:30.946Z,-5.90
2019-02-20T21:23:46.105Z,-5.92
2019-02-20T21:28:26.027Z,-6.03
2019-02-20T21:33:07.799Z,-6.05
2019-02-20T21:38:07.938Z,-6.10
2019-02-20T21:42:35.062Z,-6.01
2019-02-20T21:47:27.461Z,-6.03
2019-02-20T21:52:13.465Z,-6.21
2019-02-20T21:57:14.733Z,-6.20
2019-02-20T22:01:35.132Z,-6.22
2019-02-20T22:05:58.236Z,-6.32
2019-02-20T22:10:28.442Z,-6.35
2019-02-20T22:15:29.923Z,-6.31
2019-02-20T22:19:53.479Z,-6.34
2019-02-20T22:24:23.325Z,-6.40
2019-02-20T22:29:01.338Z,-6.43
2019-02-20T22:33:37.596Z,-6.44
2019-02-20T22:38:16.651Z,-6.51
2019-02-20T22:43:04.522Z,-6.51
2019-02-20T22:47:57.069Z,-6.50
2019-02-20T22:52:23.831Z,-6.57
2019-02-20T22:57:22.352Z,-6.72
2019-02-20T23:01:45.497Z,-6.68
2019-02-20T23:06:28.028Z,-6.77
2019-02-20T23:11:23.155Z,-6.68
2019-02-20T23:15:25.829Z,-6.82
2019-02-20T23:19:28.356Z,-6.77
2019-02-20T23:23:31.005Z,-6.89
2019-02-20T23:27:33.616Z,-6.90
2019-02-20T23:31:36.710Z,-6.96
2019-02-20T23:35:39.615Z,-6.97
2019-02-20T23:39:42.291Z,-6.96
2019-02-20T23:43:46.536Z,-6.95
2019-02-20T23:47:49.301Z,-7.07
2019-02-20T23:51:52.204Z,-7.14
2019-02-20T23:55:54.782Z,-7.24
2019-02-20T23:59:57.429Z,-7.38
